sensor_id;sensor_type;location;lat;lon;timestamp;temperature;humidity
10453;DHT22;5274;51.992;8.518;2022-09-01T00:01:01;13.50;1.00
10453;DHT22;5274;51.992;8.518;2022-09-01T00:03:27;13.40;1.00
10453;DHT22;5274;51.992;8.518;2022-09-01T00:05:53;13.50;1.00
10453;DHT22;5274;51.992;8.518;2022-09-01T00:08:22;13.30;1.00
10453;DHT22;5274;51.992;8.518;2022-09-01T00:10:47;13.30;1.00
10453;DHT22;5274;51.992;8.518;2022-09-01T00:13:13;13.30;1.00
10453;DHT22;5274;51.992;8.518;2022-09-01T00:15:39;13.30;1.00
10453;DHT22;5274;51.992;8.518;2022-09-01T00:18:05;13.30;1.00
10453;DHT22;5274;51.992;8.518;2022-09-01T00:20:30;13.20;1.00
10453;DHT22;5274;51.992;8.518;2022-09-01T00:22:56;13.20;1.00
10453;DHT22;5274;51.992;8.518;2022-09-01T00:25:22;13.30;1.00
10453;DHT22;5274;51.992;8.518;2022-09-01T00:27:49;13.20;1.00
10453;DHT22;5274;51.992;8.518;2022-09-01T00:30:15;13.20;1.00
10453;DHT22;5274;51.992;8.518;2022-09-01T00:32:41;13.10;1.00
10453;DHT22;5274;51.992;8.518;2022-09-01T00:35:15;13.10;1.00
10453;DHT22;5274;51.992;8.518;2022-09-01T00:37:41;13.10;1.00
10453;DHT22;5274;51.992;8.518;2022-09-01T00:40:07;13.10;1.00
10453;DHT22;5274;51.992;8.518;2022-09-01T00:42:33;13.10;1.00
10453;DHT22;5274;51.992;8.518;2022-09-01T00:44:59;13.00;1.00
10453;DHT22;5274;51.992;8.518;2022-09-01T00:47:25;13.00;1.00
10453;DHT22;5274;51.992;8.518;2022-09-01T00:49:50;12.90;1.00
10453;DHT22;5274;51.992;8.518;2022-09-01T00:52:34;12.80;1.00
10453;DHT22;5274;51.992;8.518;2022-09-01T00:55:14;12.80;1.00
10453;DHT22;5274;51.992;8.518;2022-09-01T00:57:40;12.80;1.00
10453;DHT22;5274;51.992;8.518;2022-09-01T01:00:27;12.70;1.00
10453;DHT22;5274;51.992;8.518;2022-09-01T01:02:53;12.60;1.00
10453;DHT22;5274;51.992;8.518;2022-09-01T01:05:33;12.60;1.00
10453;DHT22;5274;51.992;8.518;2022-09-01T01:08:02;12.60;1.00
10453;DHT22;5274;51.992;8.518;2022-09-01T01:10:31;12.60;1.00
10453;DHT22;5274;51.992;8.518;2022-09-01T01:12:58;12.50;1.00
10453;DHT22;5274;51.992;8.518;2022-09-01T01:15:27;12.50;1.00
10453;DHT22;5274;51.992;8.518;2022-09-01T01:17:53;12.50;1.00
10453;DHT22;5274;51.992;8.518;2022-09-01T01:20:21;12.40;1.00
10453;DHT22;5274;51.992;8.518;2022-09-01T01:23:44;12.50;1.00
10453;DHT22;5274;51.992;8.518;2022-09-01T01:26:13;12.60;1.00
10453;DHT22;5274;51.992;8.518;2022-09-01T01:28:40;12.70;1.00
10453;DHT22;5274;51.992;8.518;2022-09-01T01:31:14;12.80;1.00
10453;DHT22;5274;51.992;8.518;2022-09-01T01:33:45;12.80;1.00
10453;DHT22;5274;51.992;8.518;2022-09-01T01:36:21;12.90;1.00
10453;DHT22;5274;51.992;8.518;2022-09-01T01:38:55;12.90;1.00
10453;DHT22;5274;51.992;8.518;2022-09-01T01:41:28;12.90;1.00
10453;DHT22;5274;51.992;8.518;2022-09-01T01:43:58;12.90;1.00
10453;DHT22;5274;51.992;8.518;2022-09-01T01:46:25;12.90;1.00
10453;DHT22;5274;51.992;8.518;2022-09-01T01:48:51;12.80;1.00
10453;DHT22;5274;51.992;8.518;2022-09-01T01:51:20;12.70;1.00
10453;DHT22;5274;51.992;8.518;2022-09-01T01:53:49;12.70;1.00
10453;DHT22;5274;51.992;8.518;2022-09-01T01:56:17;12.60;1.00
10453;DHT22;5274;51.992;8.518;2022-09-01T01:58:43;12.60;1.00
10453;DHT22;5274;51.992;8.518;2022-09-01T02:01:09;12.60;1.00
10453;DHT22;5274;51.992;8.518;2022-09-01T02:03:36;11.20;1.00
10453;DHT22;5274;51.992;8.518;2022-09-01T02:06:07;12.60;1.00
10453;DHT22;5274;51.992;8.518;2022-09-01T02:08:35;12.60;1.00
10453;DHT22;5274;51.992;8.518;2022-09-01T02:11:01;12.60;1.00
10453;DHT22;5274;51.992;8.518;2022-09-01T02:13:27;12.60;1.00
10453;DHT22;5274;51.992;8.518;2022-09-01T02:16:04;12.60;1.00
10453;DHT22;5274;51.992;8.518;2022-09-01T02:18:34;12.60;1.00
10453;DHT22;5274;51.992;8.518;2022-09-01T02:21:05;12.60;1.00
10453;DHT22;5274;51.992;8.518;2022-09-01T02:23:34;12.60;1.00
10453;DHT22;5274;51.992;8.518;2022-09-01T02:26:00;12.50;1.00
10453;DHT22;5274;51.992;8.518;2022-09-01T02:28:29;12.50;1.00
10453;DHT22;5274;51.992;8.518;2022-09-01T02:30:57;12.40;1.00
10453;DHT22;5274;51.992;8.518;2022-09-01T02:33:24;12.40;1.00
10453;DHT22;5274;51.992;8.518;2022-09-01T02:35:56;12.30;1.00
10453;DHT22;5274;51.992;8.518;2022-09-01T02:38:22;12.30;1.00
10453;DHT22;5274;51.992;8.518;2022-09-01T02:40:51;12.30;1.00
10453;DHT22;5274;51.992;8.518;2022-09-01T02:43:18;12.30;1.00
10453;DHT22;5274;51.992;8.518;2022-09-01T02:45:46;12.20;1.00
10453;DHT22;5274;51.992;8.518;2022-09-01T02:48:12;12.20;1.00
10453;DHT22;5274;51.992;8.518;2022-09-01T02:50:39;12.20;1.00
10453;DHT22;5274;51.992;8.518;2022-09-01T02:53:06;12.10;1.00
10453;DHT22;5274;51.992;8.518;2022-09-01T02:55:35;12.10;1.00
10453;DHT22;5274;51.992;8.518;2022-09-01T02:58:01;12.00;1.00
10453;DHT22;5274;51.992;8.518;2022-09-01T03:00:26;11.90;1.00
10453;DHT22;5274;51.992;8.518;2022-09-01T03:02:59;11.80;1.00
10453;DHT22;5274;51.992;8.518;2022-09-01T03:05:27;11.70;1.00
10453;DHT22;5274;51.992;8.518;2022-09-01T03:07:57;11.60;1.00
10453;DHT22;5274;51.992;8.518;2022-09-01T03:10:25;11.60;1.00
10453;DHT22;5274;51.992;8.518;2022-09-01T03:12:58;11.60;1.00
10453;DHT22;5274;51.992;8.518;2022-09-01T03:15:24;11.50;1.00
10453;DHT22;5274;51.992;8.518;2022-09-01T03:17:51;11.50;1.00
10453;DHT22;5274;51.992;8.518;2022-09-01T03:20:17;11.50;1.00
10453;DHT22;5274;51.992;8.518;2022-09-01T03:22:44;11.50;1.00
10453;DHT22;5274;51.992;8.518;2022-09-01T03:25:12;11.50;1.00
10453;DHT22;5274;51.992;8.518;2022-09-01T03:27:37;11.50;1.00
10453;DHT22;5274;51.992;8.518;2022-09-01T03:30:03;11.50;1.00
10453;DHT22;5274;51.992;8.518;2022-09-01T03:32:29;11.50;1.00
10453;DHT22;5274;51.992;8.518;2022-09-01T03:34:54;11.50;1.00
10453;DHT22;5274;51.992;8.518;2022-09-01T03:37:21;11.40;1.00
10453;DHT22;5274;51.992;8.518;2022-09-01T03:39:47;11.40;1.00
10453;DHT22;5274;51.992;8.518;2022-09-01T03:42:13;11.40;1.00
10453;DHT22;5274;51.992;8.518;2022-09-01T03:44:47;11.40;1.00
10453;DHT22;5274;51.992;8.518;2022-09-01T03:47:14;11.40;1.00
10453;DHT22;5274;51.992;8.518;2022-09-01T03:49:39;11.40;1.00
10453;DHT22;5274;51.992;8.518;2022-09-01T03:52:08;11.50;1.00
10453;DHT22;5274;51.992;8.518;2022-09-01T03:54:35;11.50;1.00
10453;DHT22;5274;51.992;8.518;2022-09-01T03:57:00;11.50;1.00
10453;DHT22;5274;51.992;8.518;2022-09-01T03:59:26;11.50;1.00
10453;DHT22;5274;51.992;8.518;2022-09-01T04:01:54;11.50;1.00
10453;DHT22;5274;51.992;8.518;2022-09-01T04:04:20;11.40;1.00
10453;DHT22;5274;51.992;8.518;2022-09-01T04:06:46;11.40;1.00
10453;DHT22;5274;51.992;8.518;2022-09-01T04:09:12;11.30;1.00
10453;DHT22;5274;51.992;8.518;2022-09-01T04:11:38;11.30;1.00
10453;DHT22;5274;51.992;8.518;2022-09-01T04:14:05;11.30;1.00
10453;DHT22;5274;51.992;8.518;2022-09-01T04:16:32;11.30;1.00
10453;DHT22;5274;51.992;8.518;2022-09-01T04:19:20;11.30;1.00
10453;DHT22;5274;51.992;8.518;2022-09-01T04:21:52;11.30;1.00
10453;DHT22;5274;51.992;8.518;2022-09-01T04:24:19;11.40;1.00
10453;DHT22;5274;51.992;8.518;2022-09-01T04:26:48;11.40;1.00
10453;DHT22;5274;51.992;8.518;2022-09-01T04:29:15;11.40;1.00
10453;DHT22;5274;51.992;8.518;2022-09-01T04:31:43;11.30;1.00
10453;DHT22;5274;51.992;8.518;2022-09-01T04:34:09;11.30;1.00
10453;DHT22;5274;51.992;8.518;2022-09-01T04:36:40;11.30;1.00
10453;DHT22;5274;51.992;8.518;2022-09-01T04:39:07;11.30;1.00
10453;DHT22;5274;51.992;8.518;2022-09-01T04:41:39;11.30;1.00
10453;DHT22;5274;51.992;8.518;2022-09-01T04:44:06;11.20;1.00
10453;DHT22;5274;51.992;8.518;2022-09-01T04:46:35;11.30;1.00
10453;DHT22;5274;51.992;8.518;2022-09-01T04:49:03;11.20;1.00
10453;DHT22;5274;51.992;8.518;2022-09-01T04:51:43;11.20;1.00
10453;DHT22;5274;51.992;8.518;2022-09-01T04:54:10;11.10;1.00
10453;DHT22;5274;51.992;8.518;2022-09-01T04:56:40;11.10;1.00
10453;DHT22;5274;51.992;8.518;2022-09-01T04:59:06;11.10;1.00
10453;DHT22;5274;51.992;8.518;2022-09-01T05:01:34;11.20;1.00
10453;DHT22;5274;51.992;8.518;2022-09-01T05:04:20;11.10;1.00
10453;DHT22;5274;51.992;8.518;2022-09-01T05:06:49;11.10;1.00
10453;DHT22;5274;51.992;8.518;2022-09-01T05:09:19;11.10;1.00
10453;DHT22;5274;51.992;8.518;2022-09-01T05:11:44;11.10;1.00
10453;DHT22;5274;51.992;8.518;2022-09-01T05:14:12;11.10;1.00
10453;DHT22;5274;51.992;8.518;2022-09-01T05:16:38;11.10;1.00
10453;DHT22;5274;51.992;8.518;2022-09-01T05:19:07;11.20;1.00
10453;DHT22;5274;51.992;8.518;2022-09-01T05:21:43;11.10;1.00
10453;DHT22;5274;51.992;8.518;2022-09-01T05:24:18;11.10;1.00
10453;DHT22;5274;51.992;8.518;2022-09-01T05:26:46;11.10;1.00
10453;DHT22;5274;51.992;8.518;2022-09-01T05:29:15;11.10;1.00
10453;DHT22;5274;51.992;8.518;2022-09-01T05:31:43;11.20;1.00
10453;DHT22;5274;51.992;8.518;2022-09-01T05:34:10;11.20;1.00
10453;DHT22;5274;51.992;8.518;2022-09-01T05:36:44;11.20;1.00
10453;DHT22;5274;51.992;8.518;2022-09-01T05:39:10;11.20;1.00
10453;DHT22;5274;51.992;8.518;2022-09-01T05:41:37;11.30;1.00
10453;DHT22;5274;51.992;8.518;2022-09-01T05:44:04;11.40;1.00
10453;DHT22;5274;51.992;8.518;2022-09-01T05:46:33;11.40;1.00
10453;DHT22;5274;51.992;8.518;2022-09-01T05:48:59;11.50;1.00
10453;DHT22;5274;51.992;8.518;2022-09-01T05:51:26;11.50;1.00
10453;DHT22;5274;51.992;8.518;2022-09-01T05:53:53;11.60;1.00
10453;DHT22;5274;51.992;8.518;2022-09-01T05:56:20;11.60;1.00
10453;DHT22;5274;51.992;8.518;2022-09-01T05:58:48;11.70;1.00
10453;DHT22;5274;51.992;8.518;2022-09-01T06:01:33;11.70;1.00
10453;DHT22;5274;51.992;8.518;2022-09-01T06:04:00;11.80;1.00
10453;DHT22;5274;51.992;8.518;2022-09-01T06:06:30;11.90;1.00
10453;DHT22;5274;51.992;8.518;2022-09-01T06:08:59;12.00;1.00
10453;DHT22;5274;51.992;8.518;2022-09-01T06:11:26;12.00;1.00
10453;DHT22;5274;51.992;8.518;2022-09-01T06:13:54;12.10;1.00
10453;DHT22;5274;51.992;8.518;2022-09-01T06:16:21;12.20;1.00
10453;DHT22;5274;51.992;8.518;2022-09-01T06:18:47;12.20;1.00
10453;DHT22;5274;51.992;8.518;2022-09-01T06:21:14;12.40;1.00
10453;DHT22;5274;51.992;8.518;2022-09-01T06:23:41;12.40;1.00
10453;DHT22;5274;51.992;8.518;2022-09-01T06:26:15;12.50;1.00
10453;DHT22;5274;51.992;8.518;2022-09-01T06:28:42;12.50;1.00
10453;DHT22;5274;51.992;8.518;2022-09-01T06:31:08;12.60;1.00
10453;DHT22;5274;51.992;8.518;2022-09-01T06:33:34;12.70;1.00
10453;DHT22;5274;51.992;8.518;2022-09-01T06:36:00;12.90;1.00
10453;DHT22;5274;51.992;8.518;2022-09-01T06:38:28;13.00;1.00
10453;DHT22;5274;51.992;8.518;2022-09-01T06:41:02;13.10;1.00
10453;DHT22;5274;51.992;8.518;2022-09-01T06:43:29;13.10;1.00
10453;DHT22;5274;51.992;8.518;2022-09-01T06:45:55;13.20;1.00
10453;DHT22;5274;51.992;8.518;2022-09-01T06:48:21;13.20;1.00
10453;DHT22;5274;51.992;8.518;2022-09-01T06:50:47;13.30;1.00
10453;DHT22;5274;51.992;8.518;2022-09-01T06:53:13;13.40;1.00
10453;DHT22;5274;51.992;8.518;2022-09-01T06:55:43;13.50;1.00
10453;DHT22;5274;51.992;8.518;2022-09-01T06:58:10;13.60;1.00
10453;DHT22;5274;51.992;8.518;2022-09-01T07:00:41;13.70;1.00
10453;DHT22;5274;51.992;8.518;2022-09-01T07:03:08;13.70;1.00
10453;DHT22;5274;51.992;8.518;2022-09-01T07:05:38;13.80;1.00
10453;DHT22;5274;51.992;8.518;2022-09-01T07:08:04;13.80;1.00
10453;DHT22;5274;51.992;8.518;2022-09-01T07:10:42;13.90;1.00
10453;DHT22;5274;51.992;8.518;2022-09-01T07:13:11;14.00;1.00
10453;DHT22;5274;51.992;8.518;2022-09-01T07:15:39;14.10;1.00
10453;DHT22;5274;51.992;8.518;2022-09-01T07:18:05;14.20;1.00
10453;DHT22;5274;51.992;8.518;2022-09-01T07:20:31;14.30;1.00
10453;DHT22;5274;51.992;8.518;2022-09-01T07:23:02;14.40;1.00
10453;DHT22;5274;51.992;8.518;2022-09-01T07:25:28;14.50;1.00
10453;DHT22;5274;51.992;8.518;2022-09-01T07:27:53;14.60;1.00
10453;DHT22;5274;51.992;8.518;2022-09-01T07:30:21;14.60;1.00
10453;DHT22;5274;51.992;8.518;2022-09-01T07:32:47;14.70;1.00
10453;DHT22;5274;51.992;8.518;2022-09-01T07:35:16;14.80;1.00
10453;DHT22;5274;51.992;8.518;2022-09-01T07:37:43;14.80;1.00
10453;DHT22;5274;51.992;8.518;2022-09-01T07:40:11;14.90;1.00
10453;DHT22;5274;51.992;8.518;2022-09-01T07:42:36;15.00;1.00
10453;DHT22;5274;51.992;8.518;2022-09-01T07:45:10;15.00;1.00
10453;DHT22;5274;51.992;8.518;2022-09-01T07:47:36;15.10;1.00
10453;DHT22;5274;51.992;8.518;2022-09-01T07:50:07;15.10;1.00
10453;DHT22;5274;51.992;8.518;2022-09-01T07:52:38;15.20;1.00
10453;DHT22;5274;51.992;8.518;2022-09-01T07:55:08;15.20;1.00
10453;DHT22;5274;51.992;8.518;2022-09-01T07:57:35;15.30;1.00
10453;DHT22;5274;51.992;8.518;2022-09-01T08:00:01;15.50;1.00
10453;DHT22;5274;51.992;8.518;2022-09-01T08:02:26;15.50;1.00
10453;DHT22;5274;51.992;8.518;2022-09-01T08:04:52;14.10;1.00
10453;DHT22;5274;51.992;8.518;2022-09-01T08:07:18;15.60;1.00
10453;DHT22;5274;51.992;8.518;2022-09-01T08:09:44;15.70;1.00
10453;DHT22;5274;51.992;8.518;2022-09-01T08:12:10;15.80;1.00
10453;DHT22;5274;51.992;8.518;2022-09-01T08:14:36;15.90;1.00
10453;DHT22;5274;51.992;8.518;2022-09-01T08:17:01;16.00;1.00
10453;DHT22;5274;51.992;8.518;2022-09-01T08:19:27;16.00;1.00
10453;DHT22;5274;51.992;8.518;2022-09-01T08:21:53;16.20;1.00
10453;DHT22;5274;51.992;8.518;2022-09-01T08:24:18;16.10;1.00
10453;DHT22;5274;51.992;8.518;2022-09-01T08:26:44;16.10;1.00
10453;DHT22;5274;51.992;8.518;2022-09-01T08:29:09;16.10;1.00
10453;DHT22;5274;51.992;8.518;2022-09-01T08:31:35;16.20;1.00
10453;DHT22;5274;51.992;8.518;2022-09-01T08:34:01;16.40;1.00
10453;DHT22;5274;51.992;8.518;2022-09-01T08:36:29;16.50;1.00
10453;DHT22;5274;51.992;8.518;2022-09-01T08:38:55;16.60;1.00
10453;DHT22;5274;51.992;8.518;2022-09-01T08:44:37;16.70;1.00
10453;DHT22;5274;51.992;8.518;2022-09-01T08:47:09;16.80;1.00
10453;DHT22;5274;51.992;8.518;2022-09-01T08:49:36;17.00;1.00
10453;DHT22;5274;51.992;8.518;2022-09-01T08:55:27;17.00;1.00
10453;DHT22;5274;51.992;8.518;2022-09-01T08:57:42;17.20;1.00
10453;DHT22;5274;51.992;8.518;2022-09-01T09:00:11;17.20;1.00
10453;DHT22;5274;51.992;8.518;2022-09-01T09:16:45;17.70;1.00
10453;DHT22;5274;51.992;8.518;2022-09-01T09:19:22;17.90;1.00
10453;DHT22;5274;51.992;8.518;2022-09-01T09:21:50;17.90;1.00
10453;DHT22;5274;51.992;8.518;2022-09-01T09:24:35;18.10;1.00
10453;DHT22;5274;51.992;8.518;2022-09-01T09:27:29;18.20;1.00
10453;DHT22;5274;51.992;8.518;2022-09-01T09:33:31;18.50;1.00
10453;DHT22;5274;51.992;8.518;2022-09-01T09:35:39;18.60;1.00
10453;DHT22;5274;51.992;8.518;2022-09-01T09:41:16;18.70;99.90
10453;DHT22;5274;51.992;8.518;2022-09-01T09:51:37;19.20;99.90
10453;DHT22;5274;51.992;8.518;2022-09-01T09:56:37;19.40;99.90
10453;DHT22;5274;51.992;8.518;2022-09-01T09:59:21;19.60;99.90
10453;DHT22;5274;51.992;8.518;2022-09-01T10:01:47;19.60;99.90
10453;DHT22;5274;51.992;8.518;2022-09-01T10:04:31;19.80;99.90
10453;DHT22;5274;51.992;8.518;2022-09-01T10:06:57;19.90;99.90
10453;DHT22;5274;51.992;8.518;2022-09-01T10:11:51;20.20;99.90
10453;DHT22;5274;51.992;8.518;2022-09-01T10:14:23;20.40;99.90
10453;DHT22;5274;51.992;8.518;2022-09-01T10:16:53;20.50;99.90
10453;DHT22;5274;51.992;8.518;2022-09-01T10:19:22;20.70;99.90
10453;DHT22;5274;51.992;8.518;2022-09-01T10:21:48;20.80;99.90
10453;DHT22;5274;51.992;8.518;2022-09-01T10:24:32;21.00;99.90
10453;DHT22;5274;51.992;8.518;2022-09-01T10:27:05;21.30;99.90
10453;DHT22;5274;51.992;8.518;2022-09-01T10:29:49;21.40;99.90
10453;DHT22;5274;51.992;8.518;2022-09-01T10:32:39;21.60;99.90
10453;DHT22;5274;51.992;8.518;2022-09-01T10:35:09;21.60;99.90
10453;DHT22;5274;51.992;8.518;2022-09-01T10:37:37;21.60;99.90
10453;DHT22;5274;51.992;8.518;2022-09-01T10:42:55;21.70;99.90
10453;DHT22;5274;51.992;8.518;2022-09-01T10:45:37;22.00;99.90
10453;DHT22;5274;51.992;8.518;2022-09-01T10:50:53;21.90;99.90
10453;DHT22;5274;51.992;8.518;2022-09-01T10:56:21;22.20;99.90
10453;DHT22;5274;51.992;8.518;2022-09-01T11:04:07;22.60;99.90
10453;DHT22;5274;51.992;8.518;2022-09-01T11:09:28;22.70;99.90
10453;DHT22;5274;51.992;8.518;2022-09-01T11:11:59;22.90;99.90
10453;DHT22;5274;51.992;8.518;2022-09-01T11:14:28;23.20;99.90
10453;DHT22;5274;51.992;8.518;2022-09-01T11:20:02;22.50;99.90
10453;DHT22;5274;51.992;8.518;2022-09-01T11:22:39;23.50;99.90
10453;DHT22;5274;51.992;8.518;2022-09-01T11:25:36;23.60;99.90
10453;DHT22;5274;51.992;8.518;2022-09-01T11:31:09;23.90;99.90
10453;DHT22;5274;51.992;8.518;2022-09-01T11:44:12;35.20;99.90
10453;DHT22;5274;51.992;8.518;2022-09-01T11:46:38;36.50;99.90
10453;DHT22;5274;51.992;8.518;2022-09-01T11:49:28;37.50;99.90
10453;DHT22;5274;51.992;8.518;2022-09-01T11:51:55;36.10;99.90
10453;DHT22;5274;51.992;8.518;2022-09-01T11:54:22;33.50;99.90
10453;DHT22;5274;51.992;8.518;2022-09-01T11:56:48;31.60;99.90
10453;DHT22;5274;51.992;8.518;2022-09-01T11:59:14;32.20;99.90
10453;DHT22;5274;51.992;8.518;2022-09-01T12:01:56;34.70;99.90
10453;DHT22;5274;51.992;8.518;2022-09-01T12:04:31;35.40;99.90
10453;DHT22;5274;51.992;8.518;2022-09-01T12:07:12;34.40;99.90
10453;DHT22;5274;51.992;8.518;2022-09-01T12:09:42;37.20;99.90
10453;DHT22;5274;51.992;8.518;2022-09-01T12:12:36;35.30;99.90
10453;DHT22;5274;51.992;8.518;2022-09-01T12:17:43;36.50;99.90
10453;DHT22;5274;51.992;8.518;2022-09-01T12:20:38;35.40;99.90
10453;DHT22;5274;51.992;8.518;2022-09-01T12:23:22;38.40;99.90
10453;DHT22;5274;51.992;8.518;2022-09-01T12:25:50;42.50;93.80
10453;DHT22;5274;51.992;8.518;2022-09-01T12:28:15;44.70;85.50
10453;DHT22;5274;51.992;8.518;2022-09-01T12:30:42;45.20;72.40
10453;DHT22;5274;51.992;8.518;2022-09-01T12:33:10;40.80;81.80
10453;DHT22;5274;51.992;8.518;2022-09-01T12:35:38;38.30;91.40
10453;DHT22;5274;51.992;8.518;2022-09-01T12:40:47;40.00;89.10
10453;DHT22;5274;51.992;8.518;2022-09-01T12:45:53;38.40;92.50
10453;DHT22;5274;51.992;8.518;2022-09-01T12:48:36;40.90;88.40
10453;DHT22;5274;51.992;8.518;2022-09-01T12:51:22;43.50;79.30
10453;DHT22;5274;51.992;8.518;2022-09-01T12:53:57;46.60;66.70
10453;DHT22;5274;51.992;8.518;2022-09-01T12:56:29;48.40;57.60
10453;DHT22;5274;51.992;8.518;2022-09-01T12:59:13;49.60;54.10
10453;DHT22;5274;51.992;8.518;2022-09-01T13:01:40;50.20;49.40
10453;DHT22;5274;51.992;8.518;2022-09-01T13:04:13;49.50;48.90
10453;DHT22;5274;51.992;8.518;2022-09-01T13:06:39;47.90;48.70
10453;DHT22;5274;51.992;8.518;2022-09-01T13:09:05;42.90;56.40
10453;DHT22;5274;51.992;8.518;2022-09-01T13:11:30;39.90;69.60
10453;DHT22;5274;51.992;8.518;2022-09-01T13:13:56;38.20;77.50
10453;DHT22;5274;51.992;8.518;2022-09-01T13:16:22;37.10;82.40
10453;DHT22;5274;51.992;8.518;2022-09-01T13:18:48;37.40;83.60
10453;DHT22;5274;51.992;8.518;2022-09-01T13:21:14;40.00;81.10
10453;DHT22;5274;51.992;8.518;2022-09-01T13:23:40;43.00;69.10
10453;DHT22;5274;51.992;8.518;2022-09-01T13:26:05;45.20;60.70
10453;DHT22;5274;51.992;8.518;2022-09-01T13:28:31;45.00;60.30
10453;DHT22;5274;51.992;8.518;2022-09-01T13:31:00;46.20;58.50
10453;DHT22;5274;51.992;8.518;2022-09-01T13:33:26;47.40;54.90
10453;DHT22;5274;51.992;8.518;2022-09-01T13:35:53;47.90;52.20
10453;DHT22;5274;51.992;8.518;2022-09-01T13:38:20;47.30;52.70
10453;DHT22;5274;51.992;8.518;2022-09-01T13:40:47;47.30;51.50
10453;DHT22;5274;51.992;8.518;2022-09-01T13:43:19;48.20;49.10
10453;DHT22;5274;51.992;8.518;2022-09-01T13:45:45;47.50;48.50
10453;DHT22;5274;51.992;8.518;2022-09-01T13:48:10;47.70;47.90
10453;DHT22;5274;51.992;8.518;2022-09-01T13:50:37;47.50;50.50
10453;DHT22;5274;51.992;8.518;2022-09-01T13:53:03;48.20;46.70
10453;DHT22;5274;51.992;8.518;2022-09-01T13:55:32;47.50;46.40
10453;DHT22;5274;51.992;8.518;2022-09-01T13:57:57;46.60;47.10
10453;DHT22;5274;51.992;8.518;2022-09-01T14:00:29;45.90;46.70
10453;DHT22;5274;51.992;8.518;2022-09-01T14:02:59;45.10;48.30
10453;DHT22;5274;51.992;8.518;2022-09-01T14:05:31;45.40;49.10
10453;DHT22;5274;51.992;8.518;2022-09-01T14:07:57;45.70;51.10
10453;DHT22;5274;51.992;8.518;2022-09-01T14:10:23;45.70;48.00
10453;DHT22;5274;51.992;8.518;2022-09-01T14:12:50;46.40;47.20
10453;DHT22;5274;51.992;8.518;2022-09-01T14:15:17;45.70;46.60
10453;DHT22;5274;51.992;8.518;2022-09-01T14:17:44;45.70;47.70
10453;DHT22;5274;51.992;8.518;2022-09-01T14:20:13;46.40;45.20
10453;DHT22;5274;51.992;8.518;2022-09-01T14:22:39;45.30;46.30
10453;DHT22;5274;51.992;8.518;2022-09-01T14:25:06;44.40;48.20
10453;DHT22;5274;51.992;8.518;2022-09-01T14:27:32;43.80;49.70
10453;DHT22;5274;51.992;8.518;2022-09-01T14:29:57;43.90;49.70
10453;DHT22;5274;51.992;8.518;2022-09-01T14:32:23;44.30;49.60
10453;DHT22;5274;51.992;8.518;2022-09-01T14:34:52;44.50;48.30
10453;DHT22;5274;51.992;8.518;2022-09-01T14:37:18;45.00;46.20
10453;DHT22;5274;51.992;8.518;2022-09-01T14:39:49;45.20;46.30
10453;DHT22;5274;51.992;8.518;2022-09-01T14:42:14;45.10;46.20
10453;DHT22;5274;51.992;8.518;2022-09-01T14:44:40;44.80;47.30
10453;DHT22;5274;51.992;8.518;2022-09-01T14:47:06;44.80;46.10
10453;DHT22;5274;51.992;8.518;2022-09-01T14:49:32;45.20;46.30
10453;DHT22;5274;51.992;8.518;2022-09-01T14:52:02;45.30;46.40
10453;DHT22;5274;51.992;8.518;2022-09-01T14:54:29;45.90;45.10
10453;DHT22;5274;51.992;8.518;2022-09-01T14:56:54;45.90;45.40
10453;DHT22;5274;51.992;8.518;2022-09-01T14:59:20;45.00;47.50
10453;DHT22;5274;51.992;8.518;2022-09-01T15:01:45;45.30;46.40
10453;DHT22;5274;51.992;8.518;2022-09-01T15:04:11;45.00;46.10
10453;DHT22;5274;51.992;8.518;2022-09-01T15:06:36;45.20;46.10
10453;DHT22;5274;51.992;8.518;2022-09-01T15:09:02;44.70;45.60
10453;DHT22;5274;51.992;8.518;2022-09-01T15:11:28;43.70;47.40
10453;DHT22;5274;51.992;8.518;2022-09-01T15:13:53;43.40;47.60
10453;DHT22;5274;51.992;8.518;2022-09-01T15:16:22;43.20;48.90
10453;DHT22;5274;51.992;8.518;2022-09-01T15:18:48;42.70;50.20
10453;DHT22;5274;51.992;8.518;2022-09-01T15:21:29;43.40;49.20
10453;DHT22;5274;51.992;8.518;2022-09-01T15:23:58;44.60;46.90
10453;DHT22;5274;51.992;8.518;2022-09-01T15:26:25;44.50;45.80
10453;DHT22;5274;51.992;8.518;2022-09-01T15:28:50;44.40;45.80
10453;DHT22;5274;51.992;8.518;2022-09-01T15:31:18;43.90;45.50
10453;DHT22;5274;51.992;8.518;2022-09-01T15:33:44;42.00;49.30
10453;DHT22;5274;51.992;8.518;2022-09-01T15:36:18;41.70;52.50
10453;DHT22;5274;51.992;8.518;2022-09-01T15:38:44;40.30;54.50
10453;DHT22;5274;51.992;8.518;2022-09-01T15:41:39;40.10;57.60
10453;DHT22;5274;51.992;8.518;2022-09-01T15:44:07;40.30;55.60
10453;DHT22;5274;51.992;8.518;2022-09-01T15:46:34;40.20;55.40
10453;DHT22;5274;51.992;8.518;2022-09-01T15:49:06;40.90;54.00
10453;DHT22;5274;51.992;8.518;2022-09-01T15:51:33;41.20;53.30
10453;DHT22;5274;51.992;8.518;2022-09-01T15:54:06;41.70;52.50
10453;DHT22;5274;51.992;8.518;2022-09-01T15:56:31;41.30;53.40
10453;DHT22;5274;51.992;8.518;2022-09-01T15:58:58;41.60;52.80
10453;DHT22;5274;51.992;8.518;2022-09-01T16:01:25;41.60;53.40
10453;DHT22;5274;51.992;8.518;2022-09-01T16:03:51;41.60;53.20
10453;DHT22;5274;51.992;8.518;2022-09-01T16:06:17;41.20;53.80
10453;DHT22;5274;51.992;8.518;2022-09-01T16:08:42;40.60;54.20
10453;DHT22;5274;51.992;8.518;2022-09-01T16:11:09;40.80;54.60
10453;DHT22;5274;51.992;8.518;2022-09-01T16:13:37;39.70;56.50
10453;DHT22;5274;51.992;8.518;2022-09-01T16:24:13;37.00;66.00
10453;DHT22;5274;51.992;8.518;2022-09-01T16:26:39;37.30;65.40
10453;DHT22;5274;51.992;8.518;2022-09-01T16:29:11;38.10;63.40
10453;DHT22;5274;51.992;8.518;2022-09-01T16:31:39;37.40;63.80
10453;DHT22;5274;51.992;8.518;2022-09-01T16:34:15;37.90;64.10
10453;DHT22;5274;51.992;8.518;2022-09-01T16:36:51;38.10;62.80
10453;DHT22;5274;51.992;8.518;2022-09-01T16:39:42;38.20;62.20
10453;DHT22;5274;51.992;8.518;2022-09-01T16:48:08;37.30;63.00
10453;DHT22;5274;51.992;8.518;2022-09-01T16:50:56;37.10;65.10
10453;DHT22;5274;51.992;8.518;2022-09-01T16:53:42;37.30;63.30
10453;DHT22;5274;51.992;8.518;2022-09-01T16:56:43;36.90;65.30
10453;DHT22;5274;51.992;8.518;2022-09-01T17:02:26;37.10;64.70
10453;DHT22;5274;51.992;8.518;2022-09-01T17:05:14;36.30;67.50
10453;DHT22;5274;51.992;8.518;2022-09-01T17:07:56;35.30;69.90
10453;DHT22;5274;51.992;8.518;2022-09-01T17:11:06;34.80;74.00
10453;DHT22;5274;51.992;8.518;2022-09-01T17:13:37;34.40;76.50
10453;DHT22;5274;51.992;8.518;2022-09-01T17:19:17;32.50;84.50
10453;DHT22;5274;51.992;8.518;2022-09-01T17:21:55;31.90;87.50
10453;DHT22;5274;51.992;8.518;2022-09-01T17:24:43;31.40;89.80
10453;DHT22;5274;51.992;8.518;2022-09-01T17:29:50;30.70;91.70
10453;DHT22;5274;51.992;8.518;2022-09-01T17:35:11;30.10;93.90
10453;DHT22;5274;51.992;8.518;2022-09-01T17:38:11;30.00;94.40
10453;DHT22;5274;51.992;8.518;2022-09-01T17:41:03;29.50;95.50
10453;DHT22;5274;51.992;8.518;2022-09-01T17:46:43;28.50;98.30
10453;DHT22;5274;51.992;8.518;2022-09-01T17:49:37;28.10;99.50
10453;DHT22;5274;51.992;8.518;2022-09-01T18:01:03;26.70;99.90
10453;DHT22;5274;51.992;8.518;2022-09-01T18:06:47;26.20;99.90
10453;DHT22;5274;51.992;8.518;2022-09-01T18:09:16;25.90;99.90
10453;DHT22;5274;51.992;8.518;2022-09-01T18:11:57;25.50;99.90
10453;DHT22;5274;51.992;8.518;2022-09-01T18:14:32;25.30;99.90